sensor_id;sensor_type;location;lat;lon;timestamp;pressure;altitude;pressure_sealevel;temperature;humidity
36062;BME280;22123;52.412;20.970;2024-02-26T00:01:14;99855.28;;;1.45;100.00
36062;BME280;22123;52.412;20.970;2024-02-26T00:03:40;99857.47;;;1.40;100.00
36062;BME280;22123;52.412;20.970;2024-02-26T00:06:06;99846.28;;;1.36;100.00
36062;BME280;22123;52.412;20.970;2024-02-26T00:08:32;99841.59;;;1.29;100.00
36062;BME280;22123;52.412;20.970;2024-02-26T00:10:58;99816.97;;;1.17;100.00
36062;BME280;22123;52.412;20.970;2024-02-26T00:13:24;99868.56;;;1.45;100.00
36062;BME280;22123;52.412;20.970;2024-02-26T00:15:50;99867.00;;;1.43;100.00
36062;BME280;22123;52.412;20.970;2024-02-26T00:18:16;99834.56;;;1.18;100.00
36062;BME280;22123;52.412;20.970;2024-02-26T00:20:41;99829.66;;;1.13;100.00
36062;BME280;22123;52.412;20.970;2024-02-26T00:23:07;99869.81;;;1.30;100.00
36062;BME280;22123;52.412;20.970;2024-02-26T00:25:33;99828.72;;;1.03;100.00
36062;BME280;22123;52.412;20.970;2024-02-26T00:27:59;99830.31;;;0.94;100.00
36062;BME280;22123;52.412;20.970;2024-02-26T00:30:25;99812.75;;;0.82;100.00
36062;BME280;22123;52.412;20.970;2024-02-26T00:32:51;99821.41;;;0.84;100.00
36062;BME280;22123;52.412;20.970;2024-02-26T00:35:17;99860.16;;;1.08;100.00
36062;BME280;22123;52.412;20.970;2024-02-26T00:37:42;99816.88;;;0.75;100.00
36062;BME280;22123;52.412;20.970;2024-02-26T00:40:09;99807.16;;;0.64;100.00
36062;BME280;22123;52.412;20.970;2024-02-26T00:42:34;99797.03;;;0.58;100.00
36062;BME280;22123;52.412;20.970;2024-02-26T00:45:00;99796.84;;;0.49;100.00
36062;BME280;22123;52.412;20.970;2024-02-26T00:47:26;99847.22;;;0.82;100.00
36062;BME280;22123;52.412;20.970;2024-02-26T00:49:52;99804.53;;;0.52;100.00
36062;BME280;22123;52.412;20.970;2024-02-26T00:52:18;99790.97;;;0.34;100.00
36062;BME280;22123;52.412;20.970;2024-02-26T00:54:44;99817.41;;;0.46;100.00
36062;BME280;22123;52.412;20.970;2024-02-26T00:57:10;99838.25;;;0.50;100.00
36062;BME280;22123;52.412;20.970;2024-02-26T00:59:35;99806.25;;;0.31;100.00
36062;BME280;22123;52.412;20.970;2024-02-26T01:02:01;99822.59;;;0.36;100.00
36062;BME280;22123;52.412;20.970;2024-02-26T01:04:27;99822.59;;;0.36;100.00
36062;BME280;22123;52.412;20.970;2024-02-26T01:06:53;99845.09;;;0.53;100.00
36062;BME280;22123;52.412;20.970;2024-02-26T01:09:19;99804.09;;;0.25;100.00
36062;BME280;22123;52.412;20.970;2024-02-26T01:11:45;99781.50;;;0.09;100.00
36062;BME280;22123;52.412;20.970;2024-02-26T01:14:11;99836.09;;;0.44;100.00
36062;BME280;22123;52.412;20.970;2024-02-26T01:16:37;99824.53;;;0.34;100.00
36062;BME280;22123;52.412;20.970;2024-02-26T01:19:02;99765.50;;;-0.01;100.00
36062;BME280;22123;52.412;20.970;2024-02-26T01:21:28;99810.25;;;0.25;100.00
36062;BME280;22123;52.412;20.970;2024-02-26T01:23:54;99837.16;;;0.42;100.00
36062;BME280;22123;52.412;20.970;2024-02-26T01:26:20;99808.53;;;0.24;100.00
36062;BME280;22123;52.412;20.970;2024-02-26T01:28:46;99788.00;;;0.05;100.00
36062;BME280;22123;52.412;20.970;2024-02-26T01:31:12;99811.44;;;0.21;100.00
36062;BME280;22123;52.412;20.970;2024-02-26T01:33:38;99819.25;;;0.23;100.00
36062;BME280;22123;52.412;20.970;2024-02-26T01:36:04;99835.63;;;0.28;100.00
36062;BME280;22123;52.412;20.970;2024-02-26T01:38:30;99835.13;;;0.23;100.00
36062;BME280;22123;52.412;20.970;2024-02-26T01:40:55;99824.09;;;0.17;100.00
36062;BME280;22123;52.412;20.970;2024-02-26T01:43:21;99816.38;;;0.14;100.00
36062;BME280;22123;52.412;20.970;2024-02-26T01:45:47;99806.06;;;0.00;100.00
36062;BME280;22123;52.412;20.970;2024-02-26T01:48:13;99843.56;;;0.28;100.00
36062;BME280;22123;52.412;20.970;2024-02-26T01:50:40;99847.31;;;0.25;100.00
36062;BME280;22123;52.412;20.970;2024-02-26T01:53:07;99810.47;;;-0.01;100.00
36062;BME280;22123;52.412;20.970;2024-02-26T01:55:33;99785.81;;;-0.12;100.00
36062;BME280;22123;52.412;20.970;2024-02-26T01:57:59;99821.81;;;0.02;100.00
36062;BME280;22123;52.412;20.970;2024-02-26T02:00:26;99791.97;;;-0.23;100.00
36062;BME280;22123;52.412;20.970;2024-02-26T02:02:52;99815.66;;;-0.10;100.00
36062;BME280;22123;52.412;20.970;2024-02-26T02:05:19;99852.72;;;0.12;100.00
36062;BME280;22123;52.412;20.970;2024-02-26T02:07:46;99823.47;;;-0.09;100.00
36062;BME280;22123;52.412;20.970;2024-02-26T02:10:12;99844.88;;;-0.01;100.00
36062;BME280;22123;52.412;20.970;2024-02-26T02:12:38;99819.50;;;-0.14;100.00
36062;BME280;22123;52.412;20.970;2024-02-26T02:15:04;99813.84;;;-0.21;100.00
36062;BME280;22123;52.412;20.970;2024-02-26T02:17:31;99793.75;;;-0.35;100.00
36062;BME280;22123;52.412;20.970;2024-02-26T02:19:57;99819.38;;;-0.24;100.00
36062;BME280;22123;52.412;20.970;2024-02-26T02:22:23;99862.56;;;-0.01;100.00
36062;BME280;22123;52.412;20.970;2024-02-26T02:24:50;99828.75;;;-0.20;100.00
36062;BME280;22123;52.412;20.970;2024-02-26T02:27:16;99858.47;;;-0.05;100.00
36062;BME280;22123;52.412;20.970;2024-02-26T02:29:43;99855.97;;;-0.07;100.00
36062;BME280;22123;52.412;20.970;2024-02-26T02:32:09;99847.75;;;-0.15;100.00
36062;BME280;22123;52.412;20.970;2024-02-26T02:34:35;99823.47;;;-0.31;100.00
36062;BME280;22123;52.412;20.970;2024-02-26T02:37:01;99869.66;;;-0.13;100.00
36062;BME280;22123;52.412;20.970;2024-02-26T02:39:27;99818.38;;;-0.46;100.00
36062;BME280;22123;52.412;20.970;2024-02-26T02:41:53;99809.13;;;-0.51;100.00
36062;BME280;22123;52.412;20.970;2024-02-26T02:44:19;99830.78;;;-0.46;100.00
36062;BME280;22123;52.412;20.970;2024-02-26T02:46:45;99838.59;;;-0.45;100.00
36062;BME280;22123;52.412;20.970;2024-02-26T02:49:10;99875.06;;;-0.26;100.00
36062;BME280;22123;52.412;20.970;2024-02-26T02:51:37;99859.75;;;-0.45;100.00
36062;BME280;22123;52.412;20.970;2024-02-26T02:54:03;99875.41;;;-0.30;100.00
36062;BME280;22123;52.412;20.970;2024-02-26T02:56:29;99824.34;;;-0.66;100.00
36062;BME280;22123;52.412;20.970;2024-02-26T02:58:55;99834.56;;;-0.62;100.00
36062;BME280;22123;52.412;20.970;2024-02-26T03:01:20;99840.56;;;-0.60;100.00
36062;BME280;22123;52.412;20.970;2024-02-26T03:03:46;99855.38;;;-0.57;100.00
36062;BME280;22123;52.412;20.970;2024-02-26T03:06:12;99835.03;;;-0.68;100.00
36062;BME280;22123;52.412;20.970;2024-02-26T03:08:38;99840.22;;;-0.66;100.00
36062;BME280;22123;52.412;20.970;2024-02-26T03:11:04;99836.34;;;-0.74;100.00
36062;BME280;22123;52.412;20.970;2024-02-26T03:13:30;99834.88;;;-0.78;100.00
36062;BME280;22123;52.412;20.970;2024-02-26T03:15:56;99880.50;;;-0.51;100.00
36062;BME280;22123;52.412;20.970;2024-02-26T03:18:22;99882.44;;;-0.54;100.00
36062;BME280;22123;52.412;20.970;2024-02-26T03:20:48;99843.88;;;-0.80;100.00
36062;BME280;22123;52.412;20.970;2024-02-26T03:23:14;99874.00;;;-0.59;100.00
36062;BME280;22123;52.412;20.970;2024-02-26T03:25:44;99877.69;;;-0.61;100.00
36062;BME280;22123;52.412;20.970;2024-02-26T03:28:10;99887.56;;;-0.63;100.00
36062;BME280;22123;52.412;20.970;2024-02-26T03:30:36;99854.28;;;-0.90;100.00
36062;BME280;22123;52.412;20.970;2024-02-26T03:33:02;99897.75;;;-0.70;100.00
36062;BME280;22123;52.412;20.970;2024-02-26T03:35:27;99900.50;;;-0.72;100.00
36062;BME280;22123;52.412;20.970;2024-02-26T03:37:53;99903.25;;;-0.73;100.00
36062;BME280;22123;52.412;20.970;2024-02-26T03:40:19;99837.47;;;-1.13;100.00
36062;BME280;22123;52.412;20.970;2024-02-26T03:42:45;99893.88;;;-0.77;100.00
36062;BME280;22123;52.412;20.970;2024-02-26T03:45:11;99817.38;;;-1.27;100.00
36062;BME280;22123;52.412;20.970;2024-02-26T03:47:38;99861.31;;;-1.02;100.00
36062;BME280;22123;52.412;20.970;2024-02-26T03:50:04;99894.44;;;-0.85;100.00
36062;BME280;22123;52.412;20.970;2024-02-26T03:52:30;99894.66;;;-0.88;100.00
36062;BME280;22123;52.412;20.970;2024-02-26T03:54:56;99868.41;;;-1.02;100.00
36062;BME280;22123;52.412;20.970;2024-02-26T03:57:22;99884.38;;;-1.04;100.00
36062;BME280;22123;52.412;20.970;2024-02-26T03:59:48;99903.78;;;-0.92;100.00
36062;BME280;22123;52.412;20.970;2024-02-26T04:02:14;99908.22;;;-0.93;100.00
36062;BME280;22123;52.412;20.970;2024-02-26T04:04:39;99881.22;;;-1.09;100.00
36062;BME280;22123;52.412;20.970;2024-02-26T04:07:05;99885.56;;;-1.08;100.00
36062;BME280;22123;52.412;20.970;2024-02-26T04:09:31;99902.06;;;-0.93;100.00
36062;BME280;22123;52.412;20.970;2024-02-26T04:11:57;99854.72;;;-1.20;100.00
36062;BME280;22123;52.412;20.970;2024-02-26T04:14:23;99853.19;;;-1.23;100.00
36062;BME280;22123;52.412;20.970;2024-02-26T04:16:49;99864.00;;;-1.15;100.00
36062;BME280;22123;52.412;20.970;2024-02-26T04:19:15;99913.41;;;-0.91;100.00
36062;BME280;22123;52.412;20.970;2024-02-26T04:21:41;99896.19;;;-0.97;100.00
36062;BME280;22123;52.412;20.970;2024-02-26T04:24:07;99875.81;;;-1.08;100.00
36062;BME280;22123;52.412;20.970;2024-02-26T04:26:33;99849.34;;;-1.19;100.00
36062;BME280;22123;52.412;20.970;2024-02-26T04:28:58;99849.44;;;-1.20;100.00
36062;BME280;22123;52.412;20.970;2024-02-26T04:31:24;99842.50;;;-1.21;100.00
36062;BME280;22123;52.412;20.970;2024-02-26T04:33:50;99872.00;;;-1.03;100.00
36062;BME280;22123;52.412;20.970;2024-02-26T04:36:16;99897.19;;;-0.86;100.00
36062;BME280;22123;52.412;20.970;2024-02-26T04:38:43;99862.84;;;-1.11;100.00
36062;BME280;22123;52.412;20.970;2024-02-26T04:41:09;99896.13;;;-0.84;100.00
36062;BME280;22123;52.412;20.970;2024-02-26T04:43:34;99899.72;;;-0.85;100.00
36062;BME280;22123;52.412;20.970;2024-02-26T04:46:00;99846.81;;;-1.20;100.00
36062;BME280;22123;52.412;20.970;2024-02-26T04:48:27;99863.06;;;-1.14;100.00
36062;BME280;22123;52.412;20.970;2024-02-26T04:50:53;99871.09;;;-1.15;100.00
36062;BME280;22123;52.412;20.970;2024-02-26T04:53:19;99842.31;;;-1.31;100.00
36062;BME280;22123;52.412;20.970;2024-02-26T04:55:45;99885.66;;;-1.10;100.00
36062;BME280;22123;52.412;20.970;2024-02-26T04:58:11;99873.00;;;-1.17;100.00
36062;BME280;22123;52.412;20.970;2024-02-26T05:00:37;99882.03;;;-1.09;100.00
36062;BME280;22123;52.412;20.970;2024-02-26T05:03:03;99910.13;;;-0.95;100.00
36062;BME280;22123;52.412;20.970;2024-02-26T05:05:28;99889.03;;;-1.08;100.00
36062;BME280;22123;52.412;20.970;2024-02-26T05:07:54;99862.44;;;-1.17;100.00
36062;BME280;22123;52.412;20.970;2024-02-26T05:10:20;99903.13;;;-0.96;100.00
36062;BME280;22123;52.412;20.970;2024-02-26T05:12:46;99897.13;;;-0.98;100.00
36062;BME280;22123;52.412;20.970;2024-02-26T05:15:12;99864.47;;;-1.21;100.00
36062;BME280;22123;52.412;20.970;2024-02-26T05:17:38;99906.97;;;-1.00;100.00
36062;BME280;22123;52.412;20.970;2024-02-26T05:20:04;99841.19;;;-1.40;100.00
36062;BME280;22123;52.412;20.970;2024-02-26T05:22:30;99893.06;;;-1.15;100.00
36062;BME280;22123;52.412;20.970;2024-02-26T05:24:56;99908.03;;;-1.02;100.00
36062;BME280;22123;52.412;20.970;2024-02-26T05:27:22;99900.34;;;-1.06;100.00
36062;BME280;22123;52.412;20.970;2024-02-26T05:29:47;99860.81;;;-1.31;100.00
36062;BME280;22123;52.412;20.970;2024-02-26T05:32:13;99861.88;;;-1.34;100.00
36062;BME280;22123;52.412;20.970;2024-02-26T05:34:39;99910.06;;;-1.06;100.00
36062;BME280;22123;52.412;20.970;2024-02-26T05:37:05;99892.69;;;-1.21;100.00
36062;BME280;22123;52.412;20.970;2024-02-26T05:39:31;99880.88;;;-1.29;100.00
36062;BME280;22123;52.412;20.970;2024-02-26T05:41:57;99866.19;;;-1.33;100.00
36062;BME280;22123;52.412;20.970;2024-02-26T05:44:26;99888.00;;;-1.18;100.00
36062;BME280;22123;52.412;20.970;2024-02-26T05:46:52;99857.94;;;-1.28;100.00
36062;BME280;22123;52.412;20.970;2024-02-26T05:49:18;99867.72;;;-1.17;100.00
36062;BME280;22123;52.412;20.970;2024-02-26T05:51:44;99910.75;;;-0.91;100.00
36062;BME280;22123;52.412;20.970;2024-02-26T05:54:10;99928.84;;;-0.74;100.00
36062;BME280;22123;52.412;20.970;2024-02-26T05:56:36;99881.28;;;-0.98;100.00
36062;BME280;22123;52.412;20.970;2024-02-26T05:59:01;99928.81;;;-0.61;100.00
36062;BME280;22123;52.412;20.970;2024-02-26T06:01:27;99901.91;;;-0.79;100.00
36062;BME280;22123;52.412;20.970;2024-02-26T06:03:53;99876.88;;;-0.86;100.00
36062;BME280;22123;52.412;20.970;2024-02-26T06:06:19;99888.22;;;-0.73;100.00
36062;BME280;22123;52.412;20.970;2024-02-26T06:08:45;99898.13;;;-0.63;100.00
36062;BME280;22123;52.412;20.970;2024-02-26T06:11:11;99935.84;;;-0.37;100.00
36062;BME280;22123;52.412;20.970;2024-02-26T06:13:37;99923.34;;;-0.46;100.00
36062;BME280;22123;52.412;20.970;2024-02-26T06:16:03;99930.16;;;-0.44;100.00
36062;BME280;22123;52.412;20.970;2024-02-26T06:18:29;99890.91;;;-0.61;100.00
36062;BME280;22123;52.412;20.970;2024-02-26T06:20:55;99941.06;;;-0.24;100.00
36062;BME280;22123;52.412;20.970;2024-02-26T06:23:20;99906.88;;;-0.39;100.00
36062;BME280;22123;52.412;20.970;2024-02-26T06:25:46;99898.94;;;-0.39;100.00
36062;BME280;22123;52.412;20.970;2024-02-26T06:28:12;99914.97;;;-0.29;100.00
36062;BME280;22123;52.412;20.970;2024-02-26T06:30:38;99895.44;;;-0.39;100.00
36062;BME280;22123;52.412;20.970;2024-02-26T06:33:04;99943.63;;;-0.11;100.00
36062;BME280;22123;52.412;20.970;2024-02-26T06:35:31;99900.84;;;-0.41;100.00
36062;BME280;22123;52.412;20.970;2024-02-26T06:37:57;99919.63;;;-0.32;100.00
36062;BME280;22123;52.412;20.970;2024-02-26T06:40:23;99928.41;;;-0.32;100.00
36062;BME280;22123;52.412;20.970;2024-02-26T06:42:49;99927.09;;;-0.26;100.00
36062;BME280;22123;52.412;20.970;2024-02-26T06:45:15;99964.97;;;0.10;100.00
36062;BME280;22123;52.412;20.970;2024-02-26T06:47:41;99964.88;;;0.23;100.00
36062;BME280;22123;52.412;20.970;2024-02-26T06:50:07;99962.84;;;0.38;100.00
36062;BME280;22123;52.412;20.970;2024-02-26T06:52:33;99953.59;;;0.55;100.00
36062;BME280;22123;52.412;20.970;2024-02-26T06:54:58;99916.38;;;0.56;100.00
36062;BME280;22123;52.412;20.970;2024-02-26T07:00:27;99895.72;;;0.94;100.00
36062;BME280;22123;52.412;20.970;2024-02-26T07:02:53;99952.59;;;1.45;100.00
36062;BME280;22123;52.412;20.970;2024-02-26T07:05:19;99929.19;;;1.50;100.00
36062;BME280;22123;52.412;20.970;2024-02-26T07:07:45;99904.34;;;1.51;100.00
36062;BME280;22123;52.412;20.970;2024-02-26T07:10:11;99968.25;;;2.01;100.00
36062;BME280;22123;52.412;20.970;2024-02-26T07:12:37;99927.38;;;1.92;100.00
36062;BME280;22123;52.412;20.970;2024-02-26T07:15:03;99961.00;;;2.24;100.00
36062;BME280;22123;52.412;20.970;2024-02-26T07:17:29;99956.28;;;2.28;100.00
36062;BME280;22123;52.412;20.970;2024-02-26T07:19:55;99928.75;;;2.29;100.00
36062;BME280;22123;52.412;20.970;2024-02-26T07:22:21;99962.59;;;2.68;100.00
36062;BME280;22123;52.412;20.970;2024-02-26T07:24:46;99905.03;;;2.47;100.00
36062;BME280;22123;52.412;20.970;2024-02-26T07:27:12;99956.81;;;2.93;100.00
36062;BME280;22123;52.412;20.970;2024-02-26T07:29:38;99945.38;;;2.93;100.00
36062;BME280;22123;52.412;20.970;2024-02-26T07:32:05;99950.84;;;3.11;100.00
36062;BME280;22123;52.412;20.970;2024-02-26T07:34:31;99967.28;;;3.26;100.00
36062;BME280;22123;52.412;20.970;2024-02-26T07:36:56;99926.22;;;3.09;100.00
36062;BME280;22123;52.412;20.970;2024-02-26T07:39:22;99943.44;;;3.24;100.00
36062;BME280;22123;52.412;20.970;2024-02-26T07:41:48;99943.63;;;3.42;100.00
36062;BME280;22123;52.412;20.970;2024-02-26T07:44:14;99960.03;;;3.67;100.00
36062;BME280;22123;52.412;20.970;2024-02-26T07:46:40;99949.38;;;3.77;100.00
36062;BME280;22123;52.412;20.970;2024-02-26T07:49:06;99961.78;;;4.25;100.00
36062;BME280;22123;52.412;20.970;2024-02-26T07:51:32;99948.34;;;4.64;100.00
36062;BME280;22123;52.412;20.970;2024-02-26T07:53:57;99940.34;;;4.92;100.00
36062;BME280;22123;52.412;20.970;2024-02-26T07:56:23;99967.72;;;5.40;100.00
36062;BME280;22123;52.412;20.970;2024-02-26T07:58:49;99944.16;;;5.35;100.00
36062;BME280;22123;52.412;20.970;2024-02-26T08:01:15;99938.63;;;5.47;100.00
36062;BME280;22123;52.412;20.970;2024-02-26T08:03:41;99945.00;;;5.72;100.00
36062;BME280;22123;52.412;20.970;2024-02-26T08:06:08;99940.34;;;5.92;100.00
36062;BME280;22123;52.412;20.970;2024-02-26T08:08:34;99975.22;;;6.53;100.00
36062;BME280;22123;52.412;20.970;2024-02-26T08:11:00;99951.41;;;6.68;100.00
36062;BME280;22123;52.412;20.970;2024-02-26T08:13:26;99945.75;;;6.79;100.00
36062;BME280;22123;52.412;20.970;2024-02-26T08:15:52;99949.50;;;6.94;100.00
36062;BME280;22123;52.412;20.970;2024-02-26T08:18:18;99982.78;;;7.35;100.00
36062;BME280;22123;52.412;20.970;2024-02-26T08:20:44;99945.44;;;7.25;100.00
36062;BME280;22123;52.412;20.970;2024-02-26T08:23:10;99974.78;;;7.59;100.00
36062;BME280;22123;52.412;20.970;2024-02-26T08:25:36;99935.41;;;7.52;100.00
36062;BME280;22123;52.412;20.970;2024-02-26T08:28:02;99964.75;;;7.86;100.00
36062;BME280;22123;52.412;20.970;2024-02-26T08:30:28;99938.28;;;7.75;100.00
36062;BME280;22123;52.412;20.970;2024-02-26T08:32:54;99975.50;;;8.03;100.00
36062;BME280;22123;52.412;20.970;2024-02-26T08:35:20;99983.53;;;8.11;100.00
36062;BME280;22123;52.412;20.970;2024-02-26T08:37:46;99962.25;;;8.09;100.00
36062;BME280;22123;52.412;20.970;2024-02-26T08:40:13;99994.59;;;8.41;100.00
36062;BME280;22123;52.412;20.970;2024-02-26T08:42:39;99969.94;;;8.37;100.00
36062;BME280;22123;52.412;20.970;2024-02-26T08:45:07;99943.47;;;8.26;100.00
36062;BME280;22123;52.412;20.970;2024-02-26T08:47:33;99955.88;;;8.35;100.00
36062;BME280;22123;52.412;20.970;2024-02-26T08:49:59;99982.53;;;8.53;100.00
36062;BME280;22123;52.412;20.970;2024-02-26T08:52:25;99980.00;;;8.60;100.00
36062;BME280;22123;52.412;20.970;2024-02-26T08:54:51;99958.53;;;8.51;100.00
36062;BME280;22123;52.412;20.970;2024-02-26T08:57:16;99969.59;;;8.57;100.00
36062;BME280;22123;52.412;20.970;2024-02-26T08:59:42;99949.47;;;8.61;100.00
36062;BME280;22123;52.412;20.970;2024-02-26T09:02:08;99966.88;;;8.73;100.00
36062;BME280;22123;52.412;20.970;2024-02-26T09:04:35;99982.97;;;8.73;100.00
36062;BME280;22123;52.412;20.970;2024-02-26T09:07:01;99996.03;;;8.84;100.00
36062;BME280;22123;52.412;20.970;2024-02-26T09:09:27;99968.03;;;8.79;100.00
36062;BME280;22123;52.412;20.970;2024-02-26T09:11:53;99963.50;;;8.79;100.00
36062;BME280;22123;52.412;20.970;2024-02-26T09:14:19;99947.25;;;8.73;100.00
36062;BME280;22123;52.412;20.970;2024-02-26T09:16:45;99959.97;;;8.79;100.00
36062;BME280;22123;52.412;20.970;2024-02-26T09:19:12;99985.53;;;9.14;100.00
36062;BME280;22123;52.412;20.970;2024-02-26T09:21:42;99973.59;;;9.17;100.00
36062;BME280;22123;52.412;20.970;2024-02-26T09:24:08;99952.13;;;9.17;100.00
36062;BME280;22123;52.412;20.970;2024-02-26T09:26:34;99951.41;;;9.23;100.00
36062;BME280;22123;52.412;20.970;2024-02-26T09:29:00;99964.88;;;9.46;100.00
36062;BME280;22123;52.412;20.970;2024-02-26T09:31:25;99951.91;;;9.50;100.00
36062;BME280;22123;52.412;20.970;2024-02-26T09:33:51;99921.72;;;9.48;100.00
36062;BME280;22123;52.412;20.970;2024-02-26T09:36:17;99965.72;;;9.93;100.00
36062;BME280;22123;52.412;20.970;2024-02-26T09:38:43;99955.91;;;10.00;100.00
36062;BME280;22123;52.412;20.970;2024-02-26T09:41:14;99970.09;;;10.32;100.00
36062;BME280;22123;52.412;20.970;2024-02-26T09:43:45;99967.19;;;10.57;100.00
36062;BME280;22123;52.412;20.970;2024-02-26T09:46:11;99989.69;;;10.79;100.00
36062;BME280;22123;52.412;20.970;2024-02-26T09:48:37;99960.34;;;10.69;100.00
36062;BME280;22123;52.412;20.970;2024-02-26T09:51:03;99991.06;;;10.90;100.00
36062;BME280;22123;52.412;20.970;2024-02-26T09:53:30;99991.81;;;10.99;100.00
36062;BME280;22123;52.412;20.970;2024-02-26T09:55:58;99951.28;;;10.92;100.00
36062;BME280;22123;52.412;20.970;2024-02-26T09:58:25;99973.47;;;11.24;100.00
36062;BME280;22123;52.412;20.970;2024-02-26T10:00:56;99993.03;;;11.47;100.00
36062;BME280;22123;52.412;20.970;2024-02-26T10:03:25;99942.41;;;11.28;100.00
36062;BME280;22123;52.412;20.970;2024-02-26T10:05:53;99957.81;;;11.49;100.00
36062;BME280;22123;52.412;20.970;2024-02-26T10:08:19;99990.22;;;11.77;100.00
36062;BME280;22123;52.412;20.970;2024-02-26T10:10:45;99975.91;;;11.77;100.00
36062;BME280;22123;52.412;20.970;2024-02-26T10:13:11;99940.94;;;11.62;100.00
36062;BME280;22123;52.412;20.970;2024-02-26T10:15:37;99951.16;;;11.88;100.00
36062;BME280;22123;52.412;20.970;2024-02-26T10:18:07;99977.84;;;12.26;100.00
36062;BME280;22123;52.412;20.970;2024-02-26T10:20:32;99966.81;;;12.49;100.00
36062;BME280;22123;52.412;20.970;2024-02-26T10:23:02;99983.34;;;12.68;100.00
36062;BME280;22123;52.412;20.970;2024-02-26T10:25:28;99965.59;;;12.87;100.00
36062;BME280;22123;52.412;20.970;2024-02-26T10:27:54;99943.66;;;13.65;100.00
36062;BME280;22123;52.412;20.970;2024-02-26T10:30:21;100003.34;;;15.24;100.00
36062;BME280;22123;52.412;20.970;2024-02-26T10:32:48;99979.06;;;16.89;100.00
36062;BME280;22123;52.412;20.970;2024-02-26T10:35:15;99987.84;;;19.02;100.00
36062;BME280;22123;52.412;20.970;2024-02-26T10:37:41;99972.81;;;20.49;100.00
36062;BME280;22123;52.412;20.970;2024-02-26T10:40:11;99999.44;;;21.54;100.00
36062;BME280;22123;52.412;20.970;2024-02-26T10:42:37;99987.81;;;22.23;100.00
36062;BME280;22123;52.412;20.970;2024-02-26T10:45:08;99971.00;;;22.90;100.00
36062;BME280;22123;52.412;20.970;2024-02-26T10:47:38;99985.81;;;23.47;100.00
36062;BME280;22123;52.412;20.970;2024-02-26T10:50:05;99999.97;;;24.33;100.00
36062;BME280;22123;52.412;20.970;2024-02-26T10:52:34;99972.75;;;24.42;61.27
36062;BME280;22123;52.412;20.970;2024-02-26T10:55:01;99975.25;;;24.64;59.89
36062;BME280;22123;52.412;20.970;2024-02-26T10:57:32;99976.59;;;24.77;57.79
36062;BME280;22123;52.412;20.970;2024-02-26T11:00:00;99987.44;;;25.33;56.84
36062;BME280;22123;52.412;20.970;2024-02-26T11:02:27;99991.91;;;25.74;55.08
36062;BME280;22123;52.412;20.970;2024-02-26T11:04:53;99960.41;;;25.85;50.17
36062;BME280;22123;52.412;20.970;2024-02-26T11:07:20;99970.47;;;25.00;52.43
36062;BME280;22123;52.412;20.970;2024-02-26T11:09:46;99981.69;;;23.39;53.44
36062;BME280;22123;52.412;20.970;2024-02-26T11:12:13;100011.34;;;21.92;59.09
36062;BME280;22123;52.412;20.970;2024-02-26T11:14:40;100009.16;;;21.23;64.22
36062;BME280;22123;52.412;20.970;2024-02-26T11:17:09;99980.97;;;21.22;66.22
36062;BME280;22123;52.412;20.970;2024-02-26T11:19:38;99982.59;;;20.28;67.86
36062;BME280;22123;52.412;20.970;2024-02-26T11:22:04;99993.03;;;19.16;73.78
36062;BME280;22123;52.412;20.970;2024-02-26T11:24:30;99986.94;;;17.95;79.47
36062;BME280;22123;52.412;20.970;2024-02-26T11:27:01;99967.00;;;16.78;87.11
36062;BME280;22123;52.412;20.970;2024-02-26T11:29:37;99996.09;;;16.27;100.00
36062;BME280;22123;52.412;20.970;2024-02-26T11:32:05;100014.78;;;16.42;100.00
36062;BME280;22123;52.412;20.970;2024-02-26T11:34:31;99977.56;;;15.92;100.00
36062;BME280;22123;52.412;20.970;2024-02-26T11:36:57;100008.88;;;15.95;100.00
36062;BME280;22123;52.412;20.970;2024-02-26T11:39:34;99957.13;;;15.51;100.00
36062;BME280;22123;52.412;20.970;2024-02-26T11:42:07;99968.25;;;15.36;100.00
36062;BME280;22123;52.412;20.970;2024-02-26T11:44:35;99973.38;;;15.06;100.00
36062;BME280;22123;52.412;20.970;2024-02-26T11:47:11;100011.38;;;14.99;100.00
36062;BME280;22123;52.412;20.970;2024-02-26T11:49:37;99971.59;;;14.53;100.00
36062;BME280;22123;52.412;20.970;2024-02-26T11:52:05;100015.00;;;15.77;100.00
36062;BME280;22123;52.412;20.970;2024-02-26T11:59:52;99986.31;;;19.47;78.56
36062;BME280;22123;52.412;20.970;2024-02-26T12:05:14;99964.78;;;20.25;74.58
36062;BME280;22123;52.412;20.970;2024-02-26T12:07:42;99977.56;;;19.62;72.12
36062;BME280;22123;52.412;20.970;2024-02-26T12:12:53;99947.44;;;18.87;75.83
36062;BME280;22123;52.412;20.970;2024-02-26T12:15:19;99965.41;;;19.12;77.77
36062;BME280;22123;52.412;20.970;2024-02-26T12:17:48;100001.97;;;19.52;74.15
36062;BME280;22123;52.412;20.970;2024-02-26T12:20:14;99950.50;;;18.79;77.11
36062;BME280;22123;52.412;20.970;2024-02-26T12:22:45;99991.66;;;18.54;80.95
36062;BME280;22123;52.412;20.970;2024-02-26T12:25:11;99906.38;;;17.76;86.25
36062;BME280;22123;52.412;20.970;2024-02-26T12:27:36;99995.88;;;18.26;88.19
36062;BME280;22123;52.412;20.970;2024-02-26T12:30:03;99956.28;;;18.12;88.33
36062;BME280;22123;52.412;20.970;2024-02-26T12:32:29;99969.00;;;18.30;84.94
36062;BME280;22123;52.412;20.970;2024-02-26T12:34:56;100001.94;;;18.40;86.82
36062;BME280;22123;52.412;20.970;2024-02-26T12:37:22;99958.28;;;18.04;86.50
36062;BME280;22123;52.412;20.970;2024-02-26T12:39:49;99969.59;;;17.89;84.30
36062;BME280;22123;52.412;20.970;2024-02-26T12:42:15;99983.25;;;17.71;87.05
36062;BME280;22123;52.412;20.970;2024-02-26T12:44:41;99972.47;;;17.15;87.35
36062;BME280;22123;52.412;20.970;2024-02-26T12:47:07;99963.16;;;16.67;94.18
36062;BME280;22123;52.412;20.970;2024-02-26T12:49:33;99988.16;;;16.51;100.00
36062;BME280;22123;52.412;20.970;2024-02-26T12:51:59;99955.31;;;16.09;100.00
36062;BME280;22123;52.412;20.970;2024-02-26T12:54:25;99967.50;;;15.99;100.00